Time;durP1;ratioP1;P1;durP2;ratioP2;P2;SDS_P1;SDS_P2;PMS_P1;PMS_P2;Temp;Humidity;BMP_temperature;BMP_pressure;BME280_temperature;BME280_humidity;BME280_pressure;Samples;Min_cycle;Max_cycle;Signal;HPM_P1;HPM_P2
2023/02/28 00:01:26;;;;;;;12.23;6.00;;;;;;;;;;5028430;28;20025;-81
2023/02/28 00:03:52;;;;;;;13.88;6.32;;;;;;;;;;5072747;28;20025;-80
2023/02/28 00:06:18;;;;;;;8.88;5.60;;;;;;;;;;5043851;28;20078;-80
2023/02/28 00:08:44;;;;;;;11.15;6.40;;;;;;;;;;5069328;28;20486;-80
2023/02/28 00:11:12;;;;;;;10.93;6.20;;;;;;;;;;5055872;28;20048;-79
2023/02/28 00:13:39;;;;;;;11.48;6.50;;;;;;;;;;5054821;28;20025;-80
2023/02/28 00:16:07;;;;;;;16.48;7.57;;;;;;;;;;5055540;28;20089;-81
2023/02/28 00:18:33;;;;;;;12.50;6.68;;;;;;;;;;5053600;28;20029;-81
2023/02/28 00:20:59;;;;;;;15.32;6.95;;;;;;;;;;5052814;28;20025;-81
2023/02/28 00:23:26;;;;;;;12.95;6.95;;;;;;;;;;5063872;28;20029;-80
2023/02/28 00:25:52;;;;;;;16.15;6.82;;;;;;;;;;5052660;28;20029;-80
2023/02/28 00:28:18;;;;;;;14.38;7.60;;;;;;;;;;5053495;28;20033;-79
2023/02/28 00:30:44;;;;;;;13.10;6.60;;;;;;;;;;5041493;28;20858;-79
2023/02/28 00:33:10;;;;;;;13.00;6.32;;;;;;;;;;5052865;28;20561;-79
2023/02/28 00:35:36;;;;;;;13.40;7.32;;;;;;;;;;5070887;28;20038;-80
2023/02/28 00:38:02;;;;;;;13.52;7.07;;;;;;;;;;5035101;28;20085;-81
2023/02/28 00:40:28;;;;;;;14.48;6.88;;;;;;;;;;5056567;28;20023;-80
2023/02/28 00:42:54;;;;;;;13.35;6.82;;;;;;;;;;5071507;28;20494;-80
2023/02/28 00:45:20;;;;;;;12.85;6.30;;;;;;;;;;5045929;28;20025;-80
2023/02/28 00:47:49;;;;;;;14.02;7.13;;;;;;;;;;5029108;28;20053;-78
2023/02/28 00:50:15;;;;;;;14.70;6.90;;;;;;;;;;5018142;28;20030;-81
2023/02/28 00:52:41;;;;;;;13.18;7.03;;;;;;;;;;5072604;28;20051;-80
2023/02/28 00:55:07;;;;;;;13.38;6.50;;;;;;;;;;5072544;28;20075;-81
2023/02/28 00:57:33;;;;;;;18.42;8.15;;;;;;;;;;5059023;28;20028;-79
2023/02/28 00:59:59;;;;;;;15.88;7.88;;;;;;;;;;5037791;28;20053;-79
2023/02/28 01:02:25;;;;;;;14.00;7.10;;;;;;;;;;5052811;28;20507;-78
2023/02/28 01:04:51;;;;;;;12.75;7.03;;;;;;;;;;5055962;28;20032;-80
2023/02/28 01:07:17;;;;;;;15.82;7.60;;;;;;;;;;5053067;28;20033;-78
2023/02/28 01:09:43;;;;;;;18.23;7.03;;;;;;;;;;5053347;28;20033;-79
2023/02/28 01:12:10;;;;;;;14.80;7.45;;;;;;;;;;5054244;28;20503;-80
2023/02/28 01:14:36;;;;;;;12.88;6.57;;;;;;;;;;5058090;28;20107;-78
2023/02/28 01:17:02;;;;;;;16.75;8.05;;;;;;;;;;5043097;28;20048;-80
2023/02/28 01:19:28;;;;;;;13.45;6.85;;;;;;;;;;5076054;28;20051;-79
2023/02/28 01:21:54;;;;;;;13.52;7.00;;;;;;;;;;5076128;28;20033;-80
2023/02/28 01:24:20;;;;;;;13.55;6.97;;;;;;;;;;5061179;28;20545;-80
2023/02/28 01:26:46;;;;;;;11.88;6.95;;;;;;;;;;5050464;28;20031;-81
2023/02/28 01:29:12;;;;;;;15.70;7.53;;;;;;;;;;5048916;28;20051;-80
2023/02/28 01:31:38;;;;;;;14.82;7.15;;;;;;;;;;5061201;28;20029;-80
2023/02/28 01:34:04;;;;;;;13.18;7.35;;;;;;;;;;5070136;28;20108;-80
2023/02/28 01:36:30;;;;;;;17.95;6.88;;;;;;;;;;5050474;28;20035;-80
2023/02/28 01:38:56;;;;;;;14.27;6.95;;;;;;;;;;5056867;28;20021;-80
2023/02/28 01:41:25;;;;;;;14.75;7.40;;;;;;;;;;5058600;28;20032;-80
2023/02/28 01:44:03;;;;;;;17.60;7.63;;;;;;;;;;5058312;28;20025;-80
2023/02/28 01:46:29;;;;;;;14.68;7.28;;;;;;;;;;5067768;28;20037;-79
2023/02/28 01:49:01;;;;;;;14.70;7.60;;;;;;;;;;5056157;28;20024;-81
2023/02/28 01:51:29;;;;;;;13.88;6.55;;;;;;;;;;5053473;28;20017;-79
2023/02/28 01:54:00;;;;;;;15.27;6.75;;;;;;;;;;5042589;28;20050;-81
2023/02/28 01:56:31;;;;;;;14.57;6.40;;;;;;;;;;5056515;28;20021;-78
2023/02/28 01:58:57;;;;;;;12.88;7.38;;;;;;;;;;5055235;28;20048;-79
2023/02/28 02:01:24;;;;;;;13.95;7.20;;;;;;;;;;5055488;28;20079;-79
2023/02/28 02:03:55;;;;;;;14.25;7.32;;;;;;;;;;5048846;28;20049;-79
2023/02/28 02:06:22;;;;;;;13.23;7.30;;;;;;;;;;5064260;28;20057;-79
2023/02/28 02:08:48;;;;;;;14.55;7.43;;;;;;;;;;5037755;28;20035;-79
2023/02/28 02:11:18;;;;;;;17.02;8.23;;;;;;;;;;5055858;28;20100;-78
2023/02/28 02:14:10;;;;;;;12.50;7.10;;;;;;;;;;5056304;28;20056;-81
2023/02/28 02:16:39;;;;;;;18.23;7.05;;;;;;;;;;5068382;28;20028;-81
2023/02/28 02:19:05;;;;;;;12.90;7.15;;;;;;;;;;5048630;28;20027;-80
2023/02/28 02:21:50;;;;;;;17.05;8.18;;;;;;;;;;5057341;28;20048;-80
2023/02/28 02:24:19;;;;;;;13.95;6.85;;;;;;;;;;5038626;28;20037;-80
2023/02/28 02:26:53;;;;;;;16.48;7.15;;;;;;;;;;5025982;28;20021;-81
2023/02/28 02:29:21;;;;;;;15.15;7.82;;;;;;;;;;5057186;28;20028;-81
2023/02/28 02:32:06;;;;;;;14.45;7.60;;;;;;;;;;5066626;28;20055;-81
2023/02/28 02:34:44;;;;;;;13.27;7.32;;;;;;;;;;5040950;28;20026;-81
2023/02/28 02:37:28;;;;;;;13.95;7.68;;;;;;;;;;5055198;28;20039;-80
2023/02/28 02:39:54;;;;;;;13.02;7.88;;;;;;;;;;5054472;28;20021;-80
2023/02/28 02:42:46;;;;;;;14.50;7.78;;;;;;;;;;5064699;28;20095;-81
2023/02/28 02:45:16;;;;;;;14.20;7.07;;;;;;;;;;5053532;28;20041;-80
2023/02/28 02:47:43;;;;;;;16.58;7.95;;;;;;;;;;5037391;28;20144;-81
2023/02/28 02:50:12;;;;;;;15.65;7.32;;;;;;;;;;5061416;28;20028;-81
2023/02/28 02:52:41;;;;;;;17.25;8.10;;;;;;;;;;5056758;28;20029;-81
2023/02/28 02:55:10;;;;;;;14.25;7.68;;;;;;;;;;5065608;28;20029;-80
2023/02/28 02:57:41;;;;;;;12.90;7.18;;;;;;;;;;5059937;28;20033;-81
2023/02/28 03:00:08;;;;;;;13.93;7.03;;;;;;;;;;5060441;28;20016;-80
2023/02/28 03:02:36;;;;;;;15.45;7.07;;;;;;;;;;5070701;28;20155;-81
2023/02/28 03:05:05;;;;;;;14.40;7.63;;;;;;;;;;5065025;28;20475;-80
2023/02/28 03:07:31;;;;;;;14.15;7.68;;;;;;;;;;5062643;28;20032;-78
2023/02/28 03:09:57;;;;;;;19.90;8.85;;;;;;;;;;5055410;28;20453;-81
2023/02/28 03:12:41;;;;;;;18.10;7.97;;;;;;;;;;5055638;28;20025;-80
2023/02/28 03:15:07;;;;;;;18.13;7.88;;;;;;;;;;5055414;28;20017;-81
2023/02/28 03:17:56;;;;;;;16.10;7.50;;;;;;;;;;5034036;28;20589;-80
2023/02/28 03:20:42;;;;;;;14.52;7.80;;;;;;;;;;5019927;28;20032;-79
2023/02/28 03:23:08;;;;;;;17.80;8.57;;;;;;;;;;5024138;28;20038;-80
2023/02/28 03:25:46;;;;;;;15.00;8.18;;;;;;;;;;5075422;28;20028;-80
2023/02/28 03:28:32;;;;;;;12.10;6.88;;;;;;;;;;5059279;28;20021;-81
2023/02/28 03:31:08;;;;;;;16.90;7.95;;;;;;;;;;5047339;28;20155;-80
2023/02/28 03:33:54;;;;;;;17.20;8.43;;;;;;;;;;5054833;28;20107;-81
2023/02/28 03:36:22;;;;;;;16.83;7.93;;;;;;;;;;5036487;28;20074;-80
2023/02/28 03:38:57;;;;;;;12.38;6.60;;;;;;;;;;5053151;28;20643;-81
2023/02/28 03:41:24;;;;;;;16.25;7.55;;;;;;;;;;5055546;28;20082;-80
2023/02/28 03:43:54;;;;;;;14.85;7.90;;;;;;;;;;5036867;28;20029;-81
2023/02/28 03:46:23;;;;;;;11.50;6.53;;;;;;;;;;5048333;28;20047;-80
2023/02/28 03:48:57;;;;;;;14.90;6.93;;;;;;;;;;5069943;28;20364;-79
2023/02/28 03:51:24;;;;;;;17.02;7.45;;;;;;;;;;5059455;28;20024;-79
2023/02/28 03:53:55;;;;;;;15.45;7.35;;;;;;;;;;5068757;28;20029;-80
2023/02/28 03:56:24;;;;;;;16.75;8.20;;;;;;;;;;5060554;28;20017;-79
2023/02/28 03:59:25;;;;;;;15.85;8.50;;;;;;;;;;5034686;28;20039;-81
2023/02/28 04:01:51;;;;;;;16.75;8.25;;;;;;;;;;4951516;28;20035;-80
2023/02/28 04:04:17;;;;;;;15.60;7.78;;;;;;;;;;5001597;28;20041;-80
2023/02/28 04:06:44;;;;;;;12.65;7.43;;;;;;;;;;5045290;28;20033;-80
2023/02/28 04:09:11;;;;;;;16.85;7.63;;;;;;;;;;5048058;28;20026;-81
2023/02/28 04:11:38;;;;;;;16.77;8.00;;;;;;;;;;5053829;28;20090;-78
2023/02/28 04:14:05;;;;;;;15.75;8.10;;;;;;;;;;5072992;28;20021;-80
2023/02/28 04:16:32;;;;;;;12.93;7.68;;;;;;;;;;5073730;28;20017;-80
2023/02/28 04:19:01;;;;;;;14.70;7.38;;;;;;;;;;5035870;28;20078;-80
2023/02/28 04:21:51;;;;;;;17.35;7.25;;;;;;;;;;5031514;28;20025;-80
2023/02/28 04:24:18;;;;;;;21.58;8.05;;;;;;;;;;5040549;28;20045;-80
2023/02/28 04:26:46;;;;;;;16.88;7.72;;;;;;;;;;5015853;28;20034;-80
2023/02/28 04:29:13;;;;;;;16.38;9.15;;;;;;;;;;5035360;28;20491;-80
2023/02/28 04:31:39;;;;;;;16.60;8.13;;;;;;;;;;5052796;28;20028;-80
2023/02/28 04:34:06;;;;;;;19.30;8.30;;;;;;;;;;5049680;28;20032;-80
2023/02/28 04:36:32;;;;;;;15.98;7.75;;;;;;;;;;5043641;28;20047;-80
2023/02/28 04:38:58;;;;;;;15.52;7.65;;;;;;;;;;5053093;28;20026;-80
2023/02/28 04:41:24;;;;;;;18.88;8.77;;;;;;;;;;5058766;28;20100;-80
2023/02/28 04:43:53;;;;;;;19.80;8.55;;;;;;;;;;5062797;28;20120;-80
2023/02/28 04:46:20;;;;;;;15.20;8.27;;;;;;;;;;5073849;28;20049;-81
2023/02/28 04:48:46;;;;;;;15.38;7.95;;;;;;;;;;5049655;28;20029;-80
2023/02/28 04:51:14;;;;;;;15.48;7.57;;;;;;;;;;5043401;28;20017;-79
2023/02/28 04:53:41;;;;;;;15.10;8.13;;;;;;;;;;5045161;28;20106;-80
2023/02/28 04:56:07;;;;;;;17.45;8.18;;;;;;;;;;5050176;28;20074;-79
2023/02/28 04:58:34;;;;;;;16.48;9.13;;;;;;;;;;5060179;28;20017;-81
2023/02/28 05:01:03;;;;;;;15.32;8.77;;;;;;;;;;5049064;28;20135;-81
2023/02/28 05:03:29;;;;;;;20.23;9.77;;;;;;;;;;5058713;28;20025;-80
2023/02/28 05:05:55;;;;;;;16.70;7.97;;;;;;;;;;5065922;28;20068;-80
2023/02/28 05:08:21;;;;;;;13.68;8.23;;;;;;;;;;5071366;28;20051;-81
2023/02/28 05:10:48;;;;;;;21.05;8.07;;;;;;;;;;5053169;28;20037;-80
2023/02/28 05:13:14;;;;;;;16.55;7.72;;;;;;;;;;5058286;28;20032;-80
2023/02/28 05:15:40;;;;;;;17.63;8.43;;;;;;;;;;5040301;28;20047;-82
2023/02/28 05:18:06;;;;;;;14.50;7.47;;;;;;;;;;5054550;28;20025;-81
2023/02/28 05:20:32;;;;;;;17.75;7.90;;;;;;;;;;5041478;28;20017;-82
2023/02/28 05:22:59;;;;;;;16.20;7.95;;;;;;;;;;5042818;28;20564;-82
2023/02/28 05:25:25;;;;;;;16.23;8.32;;;;;;;;;;5035942;28;20078;-81
2023/02/28 05:27:51;;;;;;;17.63;8.32;;;;;;;;;;5057049;28;20043;-81
2023/02/28 05:30:18;;;;;;;20.20;8.75;;;;;;;;;;5045076;28;20029;-82
2023/02/28 05:32:44;;;;;;;17.10;8.02;;;;;;;;;;5037360;28;20065;-82
2023/02/28 05:35:13;;;;;;;19.20;8.98;;;;;;;;;;5069046;28;20067;-81
2023/02/28 05:37:39;;;;;;;20.38;8.85;;;;;;;;;;5028711;28;20056;-80
2023/02/28 05:40:07;;;;;;;17.27;7.05;;;;;;;;;;5035471;28;20052;-79
2023/02/28 05:42:33;;;;;;;15.15;8.27;;;;;;;;;;5042642;28;20152;-81
2023/02/28 05:44:59;;;;;;;24.23;11.15;;;;;;;;;;5053111;28;20056;-82
2023/02/28 05:47:25;;;;;;;21.80;10.98;;;;;;;;;;5057768;28;20140;-81
2023/02/28 05:49:51;;;;;;;17.15;8.60;;;;;;;;;;5057847;28;20544;-83
2023/02/28 05:52:17;;;;;;;17.25;9.00;;;;;;;;;;5061807;28;20029;-81
2023/02/28 05:54:43;;;;;;;16.42;8.48;;;;;;;;;;5043410;28;20137;-81
2023/02/28 05:57:09;;;;;;;20.83;10.57;;;;;;;;;;5032982;28;20017;-81
2023/02/28 05:59:39;;;;;;;26.40;13.95;;;;;;;;;;5035900;28;20484;-82
2023/02/28 06:02:05;;;;;;;29.67;15.70;;;;;;;;;;5043086;28;20029;-81
2023/02/28 06:04:32;;;;;;;32.97;15.45;;;;;;;;;;5038903;28;20025;-80
2023/02/28 06:06:58;;;;;;;25.75;12.50;;;;;;;;;;5054854;28;20041;-79
2023/02/28 06:09:24;;;;;;;22.85;10.98;;;;;;;;;;5044119;28;20063;-81
2023/02/28 06:14:53;;;;;;;;;;;;;;;;;;5051356;28;20400;-78
2023/02/28 06:17:19;;;;;;;16.88;8.93;;;;;;;;;;5056384;28;19909;-80
2023/02/28 06:19:46;;;;;;;22.73;9.50;;;;;;;;;;5059897;28;20025;-81
2023/02/28 06:22:12;;;;;;;21.25;9.77;;;;;;;;;;5058595;28;20029;-80
2023/02/28 06:24:38;;;;;;;16.95;8.80;;;;;;;;;;5056832;28;20032;-81
2023/02/28 06:27:04;;;;;;;17.65;9.35;;;;;;;;;;5060347;28;20036;-82
2023/02/28 06:29:32;;;;;;;15.40;8.48;;;;;;;;;;5062141;28;20021;-80
2023/02/28 06:31:58;;;;;;;17.13;9.50;;;;;;;;;;5068570;28;20036;-80
2023/02/28 06:34:24;;;;;;;19.30;9.93;;;;;;;;;;5041330;28;20124;-81
2023/02/28 06:36:51;;;;;;;23.23;11.02;;;;;;;;;;5036383;28;20022;-82
2023/02/28 06:39:17;;;;;;;22.08;10.85;;;;;;;;;;5048660;28;20032;-81
2023/02/28 06:41:45;;;;;;;21.90;11.00;;;;;;;;;;5035009;28;20025;-80
2023/02/28 06:44:15;;;;;;;21.92;10.55;;;;;;;;;;5056259;28;20025;-80
2023/02/28 06:46:41;;;;;;;16.95;9.13;;;;;;;;;;5039392;28;20036;-81
2023/02/28 06:49:11;;;;;;;16.60;9.07;;;;;;;;;;5072545;28;20081;-80
2023/02/28 06:51:38;;;;;;;16.80;8.73;;;;;;;;;;5058779;28;20055;-82
2023/02/28 06:54:05;;;;;;;17.90;8.55;;;;;;;;;;5059669;28;20045;-81
2023/02/28 06:56:31;;;;;;;16.17;8.57;;;;;;;;;;5057345;28;20025;-83
2023/02/28 06:58:57;;;;;;;18.15;8.60;;;;;;;;;;5057775;28;20029;-81
2023/02/28 07:01:24;;;;;;;14.98;8.55;;;;;;;;;;5055637;28;20486;-79
2023/02/28 07:03:52;;;;;;;18.77;8.73;;;;;;;;;;5055718;28;20024;-81
2023/02/28 07:06:18;;;;;;;15.52;7.93;;;;;;;;;;5047588;28;20048;-82
2023/02/28 07:08:44;;;;;;;16.58;7.85;;;;;;;;;;5054300;28;20037;-80
2023/02/28 07:11:10;;;;;;;19.02;9.82;;;;;;;;;;5055413;28;20134;-81
2023/02/28 07:13:37;;;;;;;24.30;9.27;;;;;;;;;;5055669;28;20025;-80
2023/02/28 07:16:08;;;;;;;18.13;8.93;;;;;;;;;;5056208;28;20024;-80
2023/02/28 07:18:36;;;;;;;17.75;9.05;;;;;;;;;;5031241;28;20046;-80
2023/02/28 07:21:04;;;;;;;18.02;8.20;;;;;;;;;;5053183;28;20029;-82
2023/02/28 07:23:30;;;;;;;16.75;7.88;;;;;;;;;;5038324;28;20028;-80
2023/02/28 07:25:56;;;;;;;16.70;8.40;;;;;;;;;;5063644;28;20036;-81
2023/02/28 07:28:22;;;;;;;18.67;9.57;;;;;;;;;;5052219;28;20029;-81
2023/02/28 07:30:48;;;;;;;17.48;8.45;;;;;;;;;;5039678;28;20558;-82
2023/02/28 07:33:14;;;;;;;19.63;8.93;;;;;;;;;;5042353;28;20486;-81
2023/02/28 07:35:40;;;;;;;17.58;8.57;;;;;;;;;;5062366;28;20029;-80
2023/02/28 07:38:07;;;;;;;18.92;9.00;;;;;;;;;;5057019;28;20108;-81
2023/02/28 07:40:33;;;;;;;20.30;9.00;;;;;;;;;;5039124;28;20047;-80
2023/02/28 07:43:03;;;;;;;17.35;8.82;;;;;;;;;;5037744;28;20032;-83
2023/02/28 07:45:29;;;;;;;16.83;8.40;;;;;;;;;;5037395;28;20108;-82
2023/02/28 07:47:55;;;;;;;16.48;8.82;;;;;;;;;;5063599;28;20055;-80
2023/02/28 07:50:22;;;;;;;17.58;8.65;;;;;;;;;;5037413;28;20136;-81
2023/02/28 07:52:48;;;;;;;16.55;8.85;;;;;;;;;;5037177;28;20112;-82
2023/02/28 07:55:16;;;;;;;17.80;8.88;;;;;;;;;;5063723;28;20044;-81
2023/02/28 07:57:42;;;;;;;15.07;8.77;;;;;;;;;;5062384;28;20028;-83
2023/02/28 08:00:09;;;;;;;19.08;9.32;;;;;;;;;;5055005;28;20017;-80
2023/02/28 08:02:36;;;;;;;16.48;7.65;;;;;;;;;;5055250;28;20071;-82
2023/02/28 08:05:02;;;;;;;17.10;8.18;;;;;;;;;;5063634;28;20025;-82
2023/02/28 08:07:28;;;;;;;17.52;8.45;;;;;;;;;;5074624;28;20028;-81
2023/02/28 08:09:54;;;;;;;16.50;8.90;;;;;;;;;;5057030;28;20106;-82
2023/02/28 08:12:20;;;;;;;17.88;8.90;;;;;;;;;;5062579;28;20032;-81
2023/02/28 08:14:46;;;;;;;14.85;9.50;;;;;;;;;;5057220;28;20461;-81
2023/02/28 08:17:12;;;;;;;16.58;10.15;;;;;;;;;;5039832;28;20076;-80
2023/02/28 08:19:38;;;;;;;15.80;9.15;;;;;;;;;;5055102;28;20048;-82
2023/02/28 08:22:04;;;;;;;18.77;10.10;;;;;;;;;;5032198;28;20023;-81
2023/02/28 08:24:30;;;;;;;18.17;9.20;;;;;;;;;;5053873;28;20028;-81
2023/02/28 08:26:56;;;;;;;18.42;9.60;;;;;;;;;;5036295;28;20056;-81
2023/02/28 08:29:22;;;;;;;19.00;10.25;;;;;;;;;;5048874;28;20504;-80
2023/02/28 08:31:48;;;;;;;18.67;10.43;;;;;;;;;;5036244;28;20025;-83
2023/02/28 08:34:16;;;;;;;19.35;10.38;;;;;;;;;;5055227;28;20162;-83
2023/02/28 08:36:44;;;;;;;16.92;10.15;;;;;;;;;;5032613;28;20037;-82
2023/02/28 08:39:10;;;;;;;19.67;10.82;;;;;;;;;;5016421;28;20499;-83
2023/02/28 08:41:36;;;;;;;18.63;11.23;;;;;;;;;;5034015;28;20486;-81
2023/02/28 08:44:02;;;;;;;19.90;10.30;;;;;;;;;;5034136;28;20021;-81
2023/02/28 08:46:28;;;;;;;15.13;8.38;;;;;;;;;;5035117;28;20120;-81
2023/02/28 08:48:55;;;;;;;18.67;10.48;;;;;;;;;;5054230;28;20032;-81
2023/02/28 08:51:26;;;;;;;19.73;11.70;;;;;;;;;;5053870;28;20480;-85
2023/02/28 08:53:52;;;;;;;18.70;11.27;;;;;;;;;;5059588;28;20040;-82
2023/02/28 08:56:19;;;;;;;17.52;11.02;;;;;;;;;;5073400;28;20012;-81
2023/02/28 08:58:45;;;;;;;22.55;11.60;;;;;;;;;;5045906;28;20047;-81
2023/02/28 09:01:16;;;;;;;18.83;10.65;;;;;;;;;;5049717;28;20021;-81
2023/02/28 09:03:42;;;;;;;17.77;10.45;;;;;;;;;;5033572;28;20034;-84
2023/02/28 09:06:09;;;;;;;20.35;12.13;;;;;;;;;;5050289;28;20033;-81
2023/02/28 09:08:35;;;;;;;19.83;11.55;;;;;;;;;;5055097;28;20036;-83
2023/02/28 09:11:01;;;;;;;18.00;11.52;;;;;;;;;;5051411;28;20051;-80
2023/02/28 09:13:28;;;;;;;19.63;12.65;;;;;;;;;;5040305;28;20733;-81
2023/02/28 09:15:54;;;;;;;23.40;12.80;;;;;;;;;;5071193;28;20358;-79
2023/02/28 09:18:21;;;;;;;20.60;11.77;;;;;;;;;;5072792;28;20104;-81
2023/02/28 09:20:47;;;;;;;22.20;13.45;;;;;;;;;;5056365;28;20028;-81
2023/02/28 09:23:13;;;;;;;21.05;11.68;;;;;;;;;;5035053;28;20063;-82
2023/02/28 09:25:45;;;;;;;21.63;11.38;;;;;;;;;;5048461;28;20021;-80
2023/02/28 09:28:11;;;;;;;22.38;11.93;;;;;;;;;;5033918;28;20063;-80
2023/02/28 09:30:37;;;;;;;16.77;11.13;;;;;;;;;;5065511;28;20135;-80
2023/02/28 09:33:04;;;;;;;20.75;12.65;;;;;;;;;;5050652;28;20032;-81
2023/02/28 09:35:30;;;;;;;21.92;11.60;;;;;;;;;;5058456;28;20016;-81
2023/02/28 09:37:58;;;;;;;18.85;11.05;;;;;;;;;;5057963;28;20505;-81
2023/02/28 09:40:24;;;;;;;19.70;11.77;;;;;;;;;;5058578;28;20029;-82
2023/02/28 09:42:52;;;;;;;20.35;12.48;;;;;;;;;;5063843;28;20021;-82
2023/02/28 09:45:24;;;;;;;23.02;12.13;;;;;;;;;;5062139;28;20386;-83
2023/02/28 09:47:52;;;;;;;18.10;11.93;;;;;;;;;;5055021;28;20179;-80
2023/02/28 09:50:21;;;;;;;23.40;13.50;;;;;;;;;;5050885;28;20159;-83
2023/02/28 09:52:49;;;;;;;17.45;11.52;;;;;;;;;;5039714;28;20059;-82
2023/02/28 09:55:15;;;;;;;20.00;12.23;;;;;;;;;;5039961;28;20067;-80
2023/02/28 09:57:42;;;;;;;17.92;11.40;;;;;;;;;;5079998;28;20013;-86
2023/02/28 10:00:16;;;;;;;17.90;10.63;;;;;;;;;;5054295;28;20029;-79
2023/02/28 10:02:42;;;;;;;17.10;10.68;;;;;;;;;;5045655;28;20171;-82
2023/02/28 10:05:11;;;;;;;16.02;9.55;;;;;;;;;;5059003;28;20024;-79
2023/02/28 10:07:57;;;;;;;15.93;10.50;;;;;;;;;;5068807;28;20036;-80
2023/02/28 10:10:33;;;;;;;18.33;11.02;;;;;;;;;;5037332;28;20123;-82
2023/02/28 10:13:00;;;;;;;18.15;10.82;;;;;;;;;;5035661;28;20041;-81
2023/02/28 10:15:28;;;;;;;18.05;10.43;;;;;;;;;;5042267;28;20419;-83
2023/02/28 10:17:56;;;;;;;19.90;11.63;;;;;;;;;;5076086;28;20028;-81
2023/02/28 10:20:29;;;;;;;19.50;11.65;;;;;;;;;;5057815;28;20029;-82
2023/02/28 10:23:34;;;;;;;20.42;11.60;;;;;;;;;;5017502;28;20116;-81
2023/02/28 10:26:12;;;;;;;18.38;11.63;;;;;;;;;;4970401;28;20520;-82
2023/02/28 10:28:39;;;;;;;22.63;11.45;;;;;;;;;;4974101;28;20090;-81
2023/02/28 10:31:05;;;;;;;20.00;12.80;;;;;;;;;;4958278;28;20039;-81
2023/02/28 10:33:34;;;;;;;19.90;11.73;;;;;;;;;;4958502;28;20037;-81
2023/02/28 10:36:01;;;;;;;21.63;12.35;;;;;;;;;;4943430;29;20035;-80
2023/02/28 10:38:29;;;;;;;20.23;11.95;;;;;;;;;;4953298;28;20375;-79
2023/02/28 10:41:04;;;;;;;18.90;11.38;;;;;;;;;;4958603;28;20026;-82
2023/02/28 10:43:30;;;;;;;18.98;11.20;;;;;;;;;;4972803;28;20599;-81
2023/02/28 10:46:02;;;;;;;17.45;11.30;;;;;;;;;;4957176;28;20062;-83
2023/02/28 10:51:32;;;;;;;;;;;;;;;;;;4941303;29;20083;-79
2023/02/28 10:53:58;;;;;;;17.33;10.07;;;;;;;;;;4938346;28;19910;-82
2023/02/28 10:56:25;;;;;;;19.00;10.98;;;;;;;;;;4995935;28;20116;-82
2023/02/28 10:59:02;;;;;;;33.88;25.63;;;;;;;;;;5033676;28;20033;-84
2023/02/28 11:01:31;;;;;;;20.25;10.38;;;;;;;;;;5034774;28;20120;-81
2023/02/28 11:03:57;;;;;;;18.23;10.98;;;;;;;;;;5019382;28;20038;-82
2023/02/28 11:06:25;;;;;;;20.38;11.15;;;;;;;;;;5054449;28;20052;-81
2023/02/28 11:09:03;;;;;;;20.02;11.32;;;;;;;;;;5035315;28;20088;-82
2023/02/28 11:11:31;;;;;;;18.10;10.82;;;;;;;;;;5036728;28;20115;-84
2023/02/28 11:14:03;;;;;;;17.52;10.63;;;;;;;;;;5055800;28;20422;-82
2023/02/28 11:16:33;;;;;;;16.92;9.90;;;;;;;;;;5076890;28;20107;-82
2023/02/28 11:18:59;;;;;;;16.67;9.63;;;;;;;;;;5073057;28;20021;-81
2023/02/28 11:21:42;;;;;;;18.35;9.57;;;;;;;;;;5054538;28;20017;-82
2023/02/28 11:24:20;;;;;;;17.75;10.00;;;;;;;;;;5036273;28;20483;-84
2023/02/28 11:26:51;;;;;;;15.82;10.07;;;;;;;;;;5057583;28;20594;-81
2023/02/28 11:29:30;;;;;;;17.92;9.30;;;;;;;;;;5053938;28;20021;-84
2023/02/28 11:32:08;;;;;;;16.55;9.50;;;;;;;;;;5035877;28;20036;-82
2023/02/28 11:34:35;;;;;;;17.80;9.70;;;;;;;;;;5054246;28;20021;-83
2023/02/28 11:37:05;;;;;;;16.52;9.93;;;;;;;;;;5053748;28;20028;-84
2023/02/28 11:39:31;;;;;;;18.08;11.27;;;;;;;;;;5053802;28;20044;-82
2023/02/28 11:42:02;;;;;;;16.20;9.85;;;;;;;;;;5044258;28;20098;-81
2023/02/28 11:44:40;;;;;;;16.48;9.80;;;;;;;;;;5053740;28;20036;-83
2023/02/28 11:47:15;;;;;;;17.63;10.02;;;;;;;;;;5053558;28;20041;-82
2023/02/28 11:49:49;;;;;;;18.38;10.45;;;;;;;;;;5069808;28;20035;-86
2023/02/28 11:52:15;;;;;;;16.27;9.55;;;;;;;;;;5037628;28;20065;-83
2023/02/28 11:54:41;;;;;;;18.27;9.63;;;;;;;;;;5039683;28;20028;-82
2023/02/28 11:57:10;;;;;;;17.60;9.35;;;;;;;;;;5060499;28;20035;-84
2023/02/28 11:59:44;;;;;;;13.73;9.20;;;;;;;;;;5054749;28;20024;-83
2023/02/28 12:02:29;;;;;;;16.20;9.73;;;;;;;;;;5047035;28;20027;-83
2023/02/28 12:04:57;;;;;;;16.85;10.60;;;;;;;;;;5053014;28;20029;-82
2023/02/28 12:07:27;;;;;;;17.20;9.85;;;;;;;;;;5053493;28;20111;-84
2023/02/28 12:09:56;;;;;;;14.73;9.57;;;;;;;;;;5053520;28;20025;-82
2023/02/28 12:12:29;;;;;;;16.35;9.57;;;;;;;;;;5043927;28;20077;-83
2023/02/28 12:15:13;;;;;;;17.35;9.93;;;;;;;;;;5041429;28;20103;-82
2023/02/28 12:17:58;;;;;;;15.40;9.18;;;;;;;;;;5052523;28;20067;-81
2023/02/28 12:20:24;;;;;;;16.33;10.45;;;;;;;;;;5053423;28;20039;-82
2023/02/28 12:23:00;;;;;;;17.75;9.57;;;;;;;;;;5034946;28;20029;-82
2023/02/28 12:25:40;;;;;;;16.50;10.10;;;;;;;;;;5035199;28;20054;-84
2023/02/28 12:28:09;;;;;;;19.30;10.52;;;;;;;;;;5050190;28;20021;-82
2023/02/28 12:30:37;;;;;;;17.42;9.20;;;;;;;;;;5052543;28;20051;-82
2023/02/28 12:33:03;;;;;;;17.92;10.48;;;;;;;;;;5052607;28;20029;-84
2023/02/28 12:35:38;;;;;;;17.30;10.45;;;;;;;;;;5052953;28;20090;-82
2023/02/28 12:38:17;;;;;;;18.42;10.10;;;;;;;;;;5040865;28;20017;-82
2023/02/28 12:40:45;;;;;;;17.38;10.43;;;;;;;;;;5039266;28;20025;-81
2023/02/28 12:43:13;;;;;;;21.35;10.05;;;;;;;;;;5055567;28;20032;-83
2023/02/28 12:45:48;;;;;;;17.38;10.07;;;;;;;;;;5035618;28;20439;-82
2023/02/28 12:48:15;;;;;;;16.77;9.77;;;;;;;;;;5067630;28;20147;-81
2023/02/28 12:50:41;;;;;;;16.10;9.32;;;;;;;;;;5054858;28;20021;-82
2023/02/28 12:53:15;;;;;;;16.30;9.70;;;;;;;;;;5035233;28;20116;-81
2023/02/28 12:55:57;;;;;;;16.60;9.73;;;;;;;;;;5029800;28;20074;-83
2023/02/28 12:58:23;;;;;;;17.20;9.63;;;;;;;;;;5051994;28;20070;-82
2023/02/28 13:01:08;;;;;;;16.42;9.82;;;;;;;;;;5066179;28;20025;-80
2023/02/28 13:03:39;;;;;;;17.55;10.45;;;;;;;;;;5052944;28;20036;-83
2023/02/28 13:06:11;;;;;;;17.05;9.90;;;;;;;;;;5034718;28;20025;-84
2023/02/28 13:08:56;;;;;;;15.13;9.60;;;;;;;;;;5057892;28;20033;-83
2023/02/28 13:11:29;;;;;;;16.08;9.70;;;;;;;;;;5057700;28;20376;-83
2023/02/28 13:14:02;;;;;;;17.58;11.25;;;;;;;;;;5056494;28;20390;-83
2023/02/28 13:16:30;;;;;;;15.68;10.02;;;;;;;;;;5056414;28;20021;-83
2023/02/28 13:19:09;;;;;;;16.15;9.80;;;;;;;;;;5048552;28;20490;-83
2023/02/28 13:21:42;;;;;;;16.00;10.55;;;;;;;;;;5076347;28;20031;-84
2023/02/28 13:24:09;;;;;;;15.63;10.45;;;;;;;;;;5057900;28;20027;-82
2023/02/28 13:26:38;;;;;;;16.33;10.15;;;;;;;;;;5056953;28;20052;-82
2023/02/28 13:29:16;;;;;;;19.88;9.85;;;;;;;;;;5056100;28;20068;-81
2023/02/28 13:32:01;;;;;;;15.15;9.57;;;;;;;;;;5061836;28;20115;-82
2023/02/28 13:34:27;;;;;;;16.67;9.65;;;;;;;;;;5061543;28;20035;-84
2023/02/28 13:37:13;;;;;;;15.40;9.23;;;;;;;;;;5054218;28;20112;-87
2023/02/28 13:45:18;;;;;;;;;;;;;;;;;;4992457;28;20133;-82
2023/02/28 13:47:46;;;;;;;15.57;9.77;;;;;;;;;;5000439;28;19948;-84
2023/02/28 13:50:42;;;;;;;15.00;9.15;;;;;;;;;;4983433;28;20033;-82
2023/02/28 13:53:14;;;;;;;13.75;8.80;;;;;;;;;;4973291;28;20046;-83
2023/02/28 13:55:43;;;;;;;16.23;9.38;;;;;;;;;;4989722;28;20034;-83
2023/02/28 13:58:21;;;;;;;15.68;9.52;;;;;;;;;;4995796;28;20231;-83
2023/02/28 14:00:50;;;;;;;14.52;9.23;;;;;;;;;;4978754;28;20029;-83
2023/02/28 14:03:35;;;;;;;13.68;9.10;;;;;;;;;;4985110;28;20033;-84
2023/02/28 14:06:19;;;;;;;14.23;8.88;;;;;;;;;;5000616;28;20499;-83
2023/02/28 14:08:51;;;;;;;13.25;8.82;;;;;;;;;;4984029;28;20030;-84
2023/02/28 14:11:46;;;;;;;15.43;8.65;;;;;;;;;;4983743;28;20583;-84
2023/02/28 14:14:31;;;;;;;16.63;11.00;;;;;;;;;;4927242;29;20047;-85
2023/02/28 14:16:58;;;;;;;15.63;10.05;;;;;;;;;;4944632;29;20019;-85
2023/02/28 14:19:28;;;;;;;15.43;10.38;;;;;;;;;;4943901;29;20130;-83
2023/02/28 14:22:10;;;;;;;16.98;10.32;;;;;;;;;;4951448;29;20059;-84
2023/02/28 14:24:42;;;;;;;16.33;10.32;;;;;;;;;;4917325;29;20040;-85
2023/02/28 14:27:08;;;;;;;17.00;10.25;;;;;;;;;;4906389;29;20024;-84
2023/02/28 14:29:46;;;;;;;19.63;10.80;;;;;;;;;;4905978;29;20060;-85
2023/02/28 14:32:30;;;;;;;16.83;9.90;;;;;;;;;;4931039;29;20044;-85
2023/02/28 14:35:04;;;;;;;16.73;10.52;;;;;;;;;;4937651;29;20160;-83
2023/02/28 14:37:32;;;;;;;13.65;9.48;;;;;;;;;;4941316;29;20084;-84
2023/02/28 14:39:58;;;;;;;14.63;9.95;;;;;;;;;;4939869;29;20027;-84
2023/02/28 14:42:28;;;;;;;16.38;10.10;;;;;;;;;;4946374;29;20671;-84
2023/02/28 14:44:56;;;;;;;17.48;10.50;;;;;;;;;;4945302;29;20078;-83
2023/02/28 14:47:24;;;;;;;16.55;9.90;;;;;;;;;;4941557;29;20028;-85
2023/02/28 14:49:50;;;;;;;15.35;10.52;;;;;;;;;;4935511;28;20034;-83
2023/02/28 14:52:19;;;;;;;21.15;10.93;;;;;;;;;;4999072;28;20027;-83